Details From LEGE - Girona
To LEDA - Lleida
Flight Number -
Tags generated
Created
Modified
Stats Distance 100 nm / 186 km
Max Altitude 10,100 ft / 3,078 m
Waypoints 3
Social Downloads 2
Likes 0
Share VATSIM

Download

Looking for another format? Having issues loading an existing format? Contact us
Advertisement - Login to hide

Notes

Basic altitude profile: - Ascent Rate: 2500ft/min - Ascent Speed: 250kts - Cruise Altitude: 10000ft - Cruise Speed: 420kts - Descent Rate: 1500ft/min - Descent Speed: 250kts Options: - Use NATs: no - Use PACOTS: yes - Use low airways: yes - Use high airways: no

Route

LEGE MAMUK LEDA

ID Type Via Altitude Latitude Longitude Leg Dist Tot Dist Heading (true) Name
O LEGE APT - 0 ft / 0 m 41.90520˚ 2.76213˚ - 0 nm - Girona
MAMUK FIX - 10,100 ft / 3,078 m 41.83676˚ 2.07209˚ 31 nm 31 nm 263° / 262° -
O LEDA APT - 0 ft / 0 m 41.72821˚ 0.53501˚ 69 nm 100 nm 265° / 264° Lleida

Altitude Profile

Advertisement - Login to hide

LEGE

Details ICAO LEGE (GRO)
Name Girona
Region Spain
Timezone Europe/Madrid (UTC+1.0)
Stats Elevation 403 ft / 123 m (AMSL)
Location 41.905202° 2.762133°
Runways 1
Magnetic Variation 0.978° E

METAR

LEGE 170630Z 18003KT 140V200 CAVOK M04/M05 Q1025

Decode

TAF

TAF LEGE 170500Z 1706/1806 VRB03KT 9999 FEW030 TX13/1713Z TNM02/1706Z

Decode

Departure Runways

ID Width Length Bearing (true) Bearing (mag) Surface Threshold Offset Overrun Length
02 148 ft / 45 m 7,880 ft / 2,402 m 15.50° 14.52° Asphalt 0 ft / 0 m 210 ft / 64 m
20 148 ft / 45 m 7,880 ft / 2,402 m 195.50° 194.52° Asphalt 0 ft / 0 m 200 ft / 61 m

LEDA

Details ICAO LEDA (ILD)
Name Lleida
Region Spain
Timezone Europe/Madrid (UTC+1.0)
Stats Elevation 1,151 ft / 351 m (AMSL)
Location 41.728212° 0.535013°
Runways 1
Magnetic Variation 0.414° E

METAR

Not found

TAF

TAF LEDA 170200Z 1703/1803 27007KT 9999 FEW050 TX10/1713Z TNM03/1707Z

Decode

Destination Runways

ID Width Length Bearing (true) Bearing (mag) Surface Threshold Offset Overrun Length
13 200 ft / 61 m 7,901 ft / 2,408 m 133.44° 133.03° Asphalt 0 ft / 0 m 0 ft / 0 m
31 200 ft / 61 m 7,901 ft / 2,408 m 313.46° 313.05° Asphalt 295 ft / 90 m 0 ft / 0 m

Popular Alternatives